sensor_id;sensor_type;location;lat;lon;timestamp;pressure;altitude;pressure_sealevel;temperature;humidity
77023;BME280;65952;51.440;-2.054;2022-12-10T00:00:34;99648.94;;;17.73;41.71
77023;BME280;65952;51.440;-2.054;2022-12-10T00:02:59;99648.34;;;17.71;41.96
77023;BME280;65952;51.440;-2.054;2022-12-10T00:05:24;99651.53;;;17.68;42.06
77023;BME280;65952;51.440;-2.054;2022-12-10T00:07:50;99647.38;;;17.65;41.76
77023;BME280;65952;51.440;-2.054;2022-12-10T00:10:15;99645.97;;;17.63;41.65
77023;BME280;65952;51.440;-2.054;2022-12-10T00:12:40;99647.50;;;17.59;42.08
77023;BME280;65952;51.440;-2.054;2022-12-10T00:15:07;99651.25;;;17.58;41.95
77023;BME280;65952;51.440;-2.054;2022-12-10T00:17:32;99646.28;;;17.54;41.95
77023;BME280;65952;51.440;-2.054;2022-12-10T00:19:57;99645.69;;;17.52;41.72
77023;BME280;65952;51.440;-2.054;2022-12-10T00:22:23;99641.56;;;17.50;42.00
77023;BME280;65952;51.440;-2.054;2022-12-10T00:24:48;99634.91;;;17.46;41.96
77023;BME280;65952;51.440;-2.054;2022-12-10T00:27:13;99640.56;;;17.44;41.61
77023;BME280;65952;51.440;-2.054;2022-12-10T00:29:39;99642.72;;;17.42;42.05
77023;BME280;65952;51.440;-2.054;2022-12-10T00:32:04;99639.38;;;17.40;41.72
77023;BME280;65952;51.440;-2.054;2022-12-10T00:34:31;99636.06;;;17.38;42.06
77023;BME280;65952;51.440;-2.054;2022-12-10T00:36:56;99637.34;;;17.35;42.06
77023;BME280;65952;51.440;-2.054;2022-12-10T00:39:21;99636.78;;;17.33;42.08
77023;BME280;65952;51.440;-2.054;2022-12-10T00:41:47;99639.94;;;17.30;41.93
77023;BME280;65952;51.440;-2.054;2022-12-10T00:44:13;99642.88;;;17.29;41.97
77023;BME280;65952;51.440;-2.054;2022-12-10T00:46:39;99644.97;;;17.27;41.67
77023;BME280;65952;51.440;-2.054;2022-12-10T00:49:04;99640.59;;;17.26;42.07
77023;BME280;65952;51.440;-2.054;2022-12-10T00:51:30;99643.78;;;17.22;41.77
77023;BME280;65952;51.440;-2.054;2022-12-10T00:53:57;99648.59;;;17.20;41.77
77023;BME280;65952;51.440;-2.054;2022-12-10T00:56:30;99641.75;;;17.18;41.65
77023;BME280;65952;51.440;-2.054;2022-12-10T00:58:57;99644.69;;;17.16;41.67
77023;BME280;65952;51.440;-2.054;2022-12-10T01:01:31;99643.28;;;17.14;41.98
77023;BME280;65952;51.440;-2.054;2022-12-10T01:04:01;99648.94;;;17.12;42.01
77023;BME280;65952;51.440;-2.054;2022-12-10T01:06:29;99656.44;;;17.10;42.08
77023;BME280;65952;51.440;-2.054;2022-12-10T01:08:57;99646.88;;;17.08;41.71
77023;BME280;65952;51.440;-2.054;2022-12-10T01:11:26;99653.16;;;17.08;41.80
77023;BME280;65952;51.440;-2.054;2022-12-10T01:13:53;99653.59;;;17.05;41.62
77023;BME280;65952;51.440;-2.054;2022-12-10T01:16:19;99653.00;;;17.03;41.70
77023;BME280;65952;51.440;-2.054;2022-12-10T01:18:45;99656.78;;;17.02;41.72
77023;BME280;65952;51.440;-2.054;2022-12-10T01:21:14;99660.78;;;16.99;41.65
77023;BME280;65952;51.440;-2.054;2022-12-10T01:23:41;99658.25;;;16.98;41.82
77023;BME280;65952;51.440;-2.054;2022-12-10T01:26:10;99655.78;;;16.96;41.96
77023;BME280;65952;51.440;-2.054;2022-12-10T01:28:37;99662.50;;;16.94;42.07
77023;BME280;65952;51.440;-2.054;2022-12-10T01:31:06;99666.25;;;16.93;41.85
77023;BME280;65952;51.440;-2.054;2022-12-10T01:33:32;99654.78;;;16.90;42.08
77023;BME280;65952;51.440;-2.054;2022-12-10T01:36:06;99659.59;;;16.88;41.88
77023;BME280;65952;51.440;-2.054;2022-12-10T01:38:32;99666.06;;;16.87;42.03
77023;BME280;65952;51.440;-2.054;2022-12-10T01:40:58;99651.09;;;16.85;41.77
77023;BME280;65952;51.440;-2.054;2022-12-10T01:43:25;99662.16;;;16.83;41.81
77023;BME280;65952;51.440;-2.054;2022-12-10T01:45:51;99658.84;;;16.81;41.86
77023;BME280;65952;51.440;-2.054;2022-12-10T01:48:16;99661.78;;;16.80;42.03
77023;BME280;65952;51.440;-2.054;2022-12-10T01:50:42;99658.44;;;16.78;41.74
77023;BME280;65952;51.440;-2.054;2022-12-10T01:53:07;99656.81;;;16.77;41.81
77023;BME280;65952;51.440;-2.054;2022-12-10T01:58:11;99644.75;;;16.72;41.90
77023;BME280;65952;51.440;-2.054;2022-12-10T02:00:43;99646.66;;;16.72;41.80
77023;BME280;65952;51.440;-2.054;2022-12-10T02:03:23;99648.75;;;16.70;42.08
77023;BME280;65952;51.440;-2.054;2022-12-10T02:06:01;99648.16;;;16.68;41.76
77023;BME280;65952;51.440;-2.054;2022-12-10T02:08:38;99646.50;;;16.67;41.86
77023;BME280;65952;51.440;-2.054;2022-12-10T02:11:13;99644.84;;;16.66;41.98
77023;BME280;65952;51.440;-2.054;2022-12-10T02:14:01;99639.84;;;16.63;41.75
77023;BME280;65952;51.440;-2.054;2022-12-10T02:16:34;99644.44;;;16.62;41.92
77023;BME280;65952;51.440;-2.054;2022-12-10T02:19:33;99643.84;;;16.60;41.76
77023;BME280;65952;51.440;-2.054;2022-12-10T02:22:02;99651.16;;;16.60;42.11
77023;BME280;65952;51.440;-2.054;2022-12-10T02:24:31;99643.25;;;16.58;42.02
77023;BME280;65952;51.440;-2.054;2022-12-10T02:27:06;99633.69;;;16.55;41.94
77023;BME280;65952;51.440;-2.054;2022-12-10T02:29:34;99639.09;;;16.55;41.79
77023;BME280;65952;51.440;-2.054;2022-12-10T02:34:32;99652.28;;;16.52;42.10
77023;BME280;65952;51.440;-2.054;2022-12-10T02:37:04;99652.50;;;16.50;41.73
77023;BME280;65952;51.440;-2.054;2022-12-10T02:39:36;99653.53;;;16.49;42.07
77023;BME280;65952;51.440;-2.054;2022-12-10T02:42:04;99658.13;;;16.49;41.67
77023;BME280;65952;51.440;-2.054;2022-12-10T02:44:33;99655.88;;;16.46;41.98
77023;BME280;65952;51.440;-2.054;2022-12-10T02:47:02;99660.44;;;16.45;41.84
77023;BME280;65952;51.440;-2.054;2022-12-10T02:49:28;99657.97;;;16.44;41.86
77023;BME280;65952;51.440;-2.054;2022-12-10T02:51:54;99661.72;;;16.42;42.05
77023;BME280;65952;51.440;-2.054;2022-12-10T02:54:42;99668.22;;;16.41;41.98
77023;BME280;65952;51.440;-2.054;2022-12-10T02:57:35;99662.19;;;16.39;41.79
77023;BME280;65952;51.440;-2.054;2022-12-10T03:05:08;99659.06;;;16.36;42.10
77023;BME280;65952;51.440;-2.054;2022-12-10T03:10:14;99660.13;;;16.35;42.09
77023;BME280;65952;51.440;-2.054;2022-12-10T03:12:51;99659.72;;;16.31;42.06
77023;BME280;65952;51.440;-2.054;2022-12-10T03:15:21;99660.59;;;16.32;41.82
77023;BME280;65952;51.440;-2.054;2022-12-10T03:17:48;99649.13;;;16.30;41.72
77023;BME280;65952;51.440;-2.054;2022-12-10T03:20:15;99654.78;;;16.28;42.02
77023;BME280;65952;51.440;-2.054;2022-12-10T03:22:43;99651.69;;;16.24;42.03
77023;BME280;65952;51.440;-2.054;2022-12-10T03:25:12;99653.56;;;16.24;42.16
77023;BME280;65952;51.440;-2.054;2022-12-10T03:27:40;99652.72;;;16.23;41.90
77023;BME280;65952;51.440;-2.054;2022-12-10T03:30:08;99649.19;;;16.23;42.06
77023;BME280;65952;51.440;-2.054;2022-12-10T03:32:34;99652.13;;;16.21;42.24
77023;BME280;65952;51.440;-2.054;2022-12-10T03:35:00;99644.44;;;16.18;41.86
77023;BME280;65952;51.440;-2.054;2022-12-10T03:37:27;99644.44;;;16.18;42.12
77023;BME280;65952;51.440;-2.054;2022-12-10T03:39:54;99651.75;;;16.18;41.99
77023;BME280;65952;51.440;-2.054;2022-12-10T03:42:21;99638.44;;;16.16;41.71
77023;BME280;65952;51.440;-2.054;2022-12-10T03:44:50;99644.88;;;16.15;41.96
77023;BME280;65952;51.440;-2.054;2022-12-10T03:47:15;99645.09;;;16.14;41.70
77023;BME280;65952;51.440;-2.054;2022-12-10T03:49:42;99634.47;;;16.12;42.08
77023;BME280;65952;51.440;-2.054;2022-12-10T03:52:08;99646.34;;;16.11;42.08
77023;BME280;65952;51.440;-2.054;2022-12-10T03:54:33;99642.03;;;16.10;41.86
77023;BME280;65952;51.440;-2.054;2022-12-10T03:56:59;99651.19;;;16.09;42.12
77023;BME280;65952;51.440;-2.054;2022-12-10T03:59:24;99644.09;;;16.08;41.77
77023;BME280;65952;51.440;-2.054;2022-12-10T04:01:49;99643.28;;;16.07;41.97
77023;BME280;65952;51.440;-2.054;2022-12-10T04:04:15;99638.91;;;16.06;41.89
77023;BME280;65952;51.440;-2.054;2022-12-10T04:06:41;99644.53;;;16.05;41.92
77023;BME280;65952;51.440;-2.054;2022-12-10T04:09:10;99647.47;;;16.03;42.35
77023;BME280;65952;51.440;-2.054;2022-12-10T04:11:35;99633.94;;;16.03;42.37
77023;BME280;65952;51.440;-2.054;2022-12-10T04:14:01;99639.56;;;16.02;42.06
77023;BME280;65952;51.440;-2.054;2022-12-10T04:16:44;99645.00;;;16.02;41.93
77023;BME280;65952;51.440;-2.054;2022-12-10T04:19:12;99646.03;;;16.01;42.13
77023;BME280;65952;51.440;-2.054;2022-12-10T04:21:39;99651.66;;;15.99;42.00
77023;BME280;65952;51.440;-2.054;2022-12-10T04:24:26;99647.31;;;15.98;42.11
77023;BME280;65952;51.440;-2.054;2022-12-10T04:27:28;99642.13;;;15.97;42.39
77023;BME280;65952;51.440;-2.054;2022-12-10T04:29:54;99645.06;;;15.95;42.29
77023;BME280;65952;51.440;-2.054;2022-12-10T04:32:21;99644.19;;;15.95;42.29
77023;BME280;65952;51.440;-2.054;2022-12-10T04:34:48;99648.81;;;15.94;42.39
77023;BME280;65952;51.440;-2.054;2022-12-10T04:37:14;99649.84;;;15.93;42.13
77023;BME280;65952;51.440;-2.054;2022-12-10T04:39:40;99646.50;;;15.91;41.98
77023;BME280;65952;51.440;-2.054;2022-12-10T04:42:06;99643.00;;;15.90;41.92
77023;BME280;65952;51.440;-2.054;2022-12-10T04:44:32;99644.25;;;15.88;42.09
77023;BME280;65952;51.440;-2.054;2022-12-10T04:46:58;99649.69;;;15.88;42.23
77023;BME280;65952;51.440;-2.054;2022-12-10T04:49:24;99647.19;;;15.86;42.30
77023;BME280;65952;51.440;-2.054;2022-12-10T04:51:50;99648.25;;;15.85;41.92
77023;BME280;65952;51.440;-2.054;2022-12-10T04:54:16;99642.19;;;15.83;41.96
77023;BME280;65952;51.440;-2.054;2022-12-10T04:56:41;99644.91;;;15.83;42.52
77023;BME280;65952;51.440;-2.054;2022-12-10T04:59:08;99642.44;;;15.82;42.19
77023;BME280;65952;51.440;-2.054;2022-12-10T05:01:34;99638.88;;;15.81;42.43
77023;BME280;65952;51.440;-2.054;2022-12-10T05:04:01;99642.63;;;15.80;42.41
77023;BME280;65952;51.440;-2.054;2022-12-10T05:06:27;99644.47;;;15.80;42.07
77023;BME280;65952;51.440;-2.054;2022-12-10T05:08:53;99642.00;;;15.78;42.30
77023;BME280;65952;51.440;-2.054;2022-12-10T05:11:20;99642.00;;;15.78;42.22
77023;BME280;65952;51.440;-2.054;2022-12-10T05:13:46;99641.19;;;15.77;42.75
77023;BME280;65952;51.440;-2.054;2022-12-10T05:16:15;99638.47;;;15.77;42.80
77023;BME280;65952;51.440;-2.054;2022-12-10T05:18:40;99647.41;;;15.78;42.81
77023;BME280;65952;51.440;-2.054;2022-12-10T05:21:10;99644.47;;;15.80;42.69
77023;BME280;65952;51.440;-2.054;2022-12-10T05:23:37;99645.13;;;15.82;43.19
77023;BME280;65952;51.440;-2.054;2022-12-10T05:26:11;99640.34;;;15.84;43.46
77023;BME280;65952;51.440;-2.054;2022-12-10T05:28:40;99647.19;;;15.86;43.39
77023;BME280;65952;51.440;-2.054;2022-12-10T05:31:11;99657.34;;;15.91;43.91
77023;BME280;65952;51.440;-2.054;2022-12-10T16:47:58;99643.63;;;-0.57;85.96
77023;BME280;65952;51.440;-2.054;2022-12-10T16:50:25;99640.47;;;-0.62;86.52
